Time;durP1;ratioP1;P1;durP2;ratioP2;P2;SDS_P1;SDS_P2;PMS_P1;PMS_P2;Temp;Humidity;BMP_temperature;BMP_pressure;BME280_temperature;BME280_humidity;BME280_pressure;Samples;Min_cycle;Max_cycle;Signal;HPM_P1;HPM_P2
2021/08/23 00:00:55;;;;;;;0.80;0.80;;;21.50;54.30;;;25.17;37.34;101713.84;5091874;28;20052;-34
2021/08/23 00:03:21;;;;;;;0.80;0.80;;;21.50;54.30;;;25.18;37.10;101715.56;5093463;28;20048;-34
2021/08/23 00:05:47;;;;;;;0.90;0.90;;;21.50;54.30;;;25.19;37.24;101714.59;5093136;28;20052;-34
2021/08/23 00:08:13;;;;;;;0.80;0.80;;;21.50;54.20;;;25.19;37.17;101711.06;5093039;28;20040;-34
2021/08/23 00:10:38;;;;;;;1.20;0.88;;;21.50;54.30;;;25.17;37.13;101710.31;5092876;28;20130;-35
2021/08/23 00:13:04;;;;;;;0.82;0.82;;;21.50;54.30;;;25.19;37.25;101713.75;5093545;28;20047;-34
2021/08/23 00:15:30;;;;;;;0.73;0.73;;;21.50;54.30;;;25.17;37.28;101711.16;5093234;28;20093;-34
2021/08/23 00:17:56;;;;;;;0.80;0.80;;;21.50;54.30;;;25.16;37.33;101704.13;5074735;28;20496;-34
2021/08/23 00:20:31;;;;;;;0.90;0.90;;;21.50;54.30;;;25.15;37.19;101702.38;5092679;28;20060;-34
2021/08/23 00:22:57;;;;;;;0.80;0.80;;;21.50;54.30;;;25.19;36.96;101711.06;5092738;28;20048;-34
2021/08/23 00:25:23;;;;;;;0.90;0.90;;;21.50;54.30;;;25.18;37.17;101712.91;5092866;28;20386;-34
2021/08/23 00:27:49;;;;;;;0.73;0.73;;;21.50;54.30;;;25.19;37.34;101703.03;5092818;28;20101;-35
2021/08/23 00:30:16;;;;;;;1.05;0.80;;;21.50;54.20;;;25.15;37.22;101700.56;5092636;28;20060;-34
2021/08/23 00:32:42;;;;;;;0.90;0.90;;;21.50;54.20;;;25.15;37.04;101699.72;5093188;28;20048;-34
2021/08/23 00:35:09;;;;;;;1.00;0.90;;;21.50;54.20;;;25.16;37.11;101701.44;5073410;28;20041;-34
2021/08/23 00:37:39;;;;;;;0.82;0.82;;;21.50;54.30;;;25.16;37.19;101704.13;5092514;28;20047;-34
2021/08/23 00:40:06;;;;;;;0.80;0.80;;;21.50;54.30;;;25.18;37.06;101706.69;5093082;28;20047;-34
2021/08/23 00:42:32;;;;;;;1.05;1.00;;;21.50;54.20;;;25.18;37.20;101712.03;5093101;28;20496;-34
2021/08/23 00:44:57;;;;;;;0.80;0.80;;;21.50;54.20;;;25.15;37.05;101713.94;5092508;28;20043;-34
2021/08/23 00:47:23;;;;;;;1.38;0.93;;;21.50;54.30;;;25.16;37.07;101714.81;5092618;28;20485;-34
2021/08/23 00:49:49;;;;;;;0.80;0.80;;;21.40;54.20;;;25.15;37.08;101711.28;5092454;28;20370;-34
2021/08/23 00:52:15;;;;;;;0.98;0.88;;;21.40;54.20;;;25.18;37.04;101714.72;5090370;28;20049;-34
2021/08/23 00:54:43;;;;;;;1.13;0.80;;;21.50;54.30;;;25.16;37.14;101717.50;5092397;28;20055;-34
2021/08/23 00:57:10;;;;;;;0.80;0.80;;;21.40;54.20;;;25.14;37.13;101712.25;5092332;28;20067;-34
2021/08/23 00:59:41;;;;;;;0.73;0.73;;;21.40;54.20;;;25.11;37.17;101704.41;5092203;28;20070;-34
2021/08/23 01:02:30;;;;;;;0.80;0.80;;;21.40;54.20;;;25.13;37.26;101707.84;5074758;28;20063;-34
2021/08/23 01:05:15;;;;;;;0.70;0.70;;;21.40;54.30;;;25.13;37.25;101713.19;5077835;28;20040;-34
2021/08/23 01:08:03;;;;;;;0.95;0.85;;;21.40;54.20;;;25.11;37.28;101706.25;5075628;28;20048;-34
2021/08/23 01:10:42;;;;;;;1.08;0.98;;;21.40;54.20;;;25.11;37.32;101704.41;5095936;28;20055;-34
2021/08/23 01:13:08;;;;;;;0.85;0.85;;;21.40;54.20;;;25.11;37.19;101707.09;5096172;28;20048;-34
2021/08/23 01:15:35;;;;;;;1.10;1.00;;;21.50;54.30;;;25.09;37.13;101713.50;5095762;28;20097;-34
2021/08/23 01:18:03;;;;;;;0.85;0.77;;;21.40;54.30;;;25.12;37.16;101718.66;5095288;28;20083;-34
2021/08/23 01:20:33;;;;;;;0.70;0.70;;;21.40;54.30;;;25.12;37.05;101721.31;5095960;28;20079;-34
2021/08/23 01:23:01;;;;;;;1.03;0.93;;;21.40;54.30;;;25.12;37.24;101724.00;5095698;28;20040;-34
2021/08/23 01:25:30;;;;;;;0.80;0.80;;;21.40;54.30;;;25.10;37.16;101723.25;5077500;28;20040;-34
2021/08/23 01:28:08;;;;;;;0.70;0.70;;;21.40;54.30;;;25.08;37.29;101717.16;5076595;28;20650;-34
2021/08/23 01:30:46;;;;;;;0.65;0.65;;;21.40;54.30;;;25.10;37.26;101729.44;5094253;28;20374;-34
2021/08/23 01:33:13;;;;;;;0.95;0.95;;;21.40;54.30;;;25.12;37.16;101724.00;5095461;28;20079;-34
2021/08/23 01:35:39;;;;;;;1.00;0.80;;;21.40;54.30;;;25.12;37.30;101724.84;5077783;28;20375;-34
2021/08/23 01:38:05;;;;;;;0.70;0.70;;;21.40;54.30;;;25.10;37.29;101726.78;5095401;28;20055;-34
2021/08/23 01:40:30;;;;;;;0.85;0.85;;;21.40;54.30;;;25.09;37.17;101727.75;5095337;28;20044;-34
2021/08/23 01:42:56;;;;;;;0.93;0.80;;;21.40;54.30;;;25.09;37.12;101727.75;5095675;28;20090;-34
2021/08/23 01:45:22;;;;;;;0.93;0.80;;;21.40;54.30;;;25.12;37.18;101738.22;5095246;28;20039;-34
2021/08/23 01:47:48;;;;;;;0.70;0.70;;;21.40;54.30;;;25.11;37.21;101733.00;5095212;28;20055;-34
2021/08/23 01:50:14;;;;;;;0.98;0.93;;;21.40;54.30;;;25.10;37.40;101729.44;5095095;28;20067;-34
2021/08/23 01:52:39;;;;;;;0.90;0.90;;;21.40;54.30;;;25.08;37.23;101734.06;5095130;28;20051;-34
2021/08/23 01:55:05;;;;;;;0.70;0.70;;;21.40;54.30;;;25.08;37.39;101738.56;5095717;28;20052;-34
2021/08/23 01:57:31;;;;;;;0.80;0.80;;;21.40;54.30;;;25.09;37.29;101737.56;5095161;28;20040;-34
2021/08/23 01:59:57;;;;;;;1.00;0.70;;;21.40;54.30;;;25.10;37.17;101740.16;5095003;28;20056;-34
2021/08/23 02:02:23;;;;;;;0.80;0.80;;;21.40;54.30;;;25.10;37.38;101742.81;5094975;28;20447;-34
2021/08/23 02:04:48;;;;;;;0.82;0.80;;;21.40;54.30;;;25.09;37.20;101738.47;5095020;28;20059;-34
2021/08/23 02:07:14;;;;;;;0.80;0.80;;;21.40;54.30;;;25.07;37.29;101742.19;5095160;28;20040;-34
2021/08/23 02:09:41;;;;;;;1.02;0.85;;;21.40;54.30;;;25.09;37.41;101745.59;5095367;28;20055;-34
2021/08/23 02:12:08;;;;;;;0.80;0.80;;;21.40;54.30;;;25.06;37.29;101746.69;5095228;28;20470;-34
2021/08/23 02:14:34;;;;;;;0.80;0.80;;;21.40;54.30;;;25.07;37.33;101753.72;5092723;28;20052;-34
2021/08/23 02:17:00;;;;;;;0.77;0.75;;;21.40;54.40;;;25.07;37.20;101748.38;5094543;28;20054;-34
2021/08/23 02:19:26;;;;;;;0.95;0.90;;;21.40;54.40;;;25.08;37.35;101751.94;5094647;28;20055;-35
2021/08/23 02:21:55;;;;;;;0.70;0.70;;;21.40;54.30;;;25.07;37.26;101759.09;5094568;28;20048;-35
2021/08/23 02:24:22;;;;;;;0.70;0.70;;;21.40;54.40;;;25.08;37.21;101749.25;5094664;28;20067;-34
2021/08/23 02:26:50;;;;;;;0.70;0.70;;;21.40;54.30;;;25.07;37.43;101748.38;5094253;28;20413;-34
2021/08/23 02:29:16;;;;;;;0.80;0.80;;;21.40;54.30;;;25.04;37.21;101745.94;5094835;28;20429;-34
2021/08/23 02:31:42;;;;;;;0.73;0.73;;;21.40;54.40;;;25.04;37.16;101751.28;5094427;28;20072;-34
2021/08/23 02:34:08;;;;;;;0.70;0.70;;;21.40;54.40;;;25.05;37.31;101766.34;5094208;28;20052;-34
2021/08/23 02:36:34;;;;;;;1.00;0.90;;;21.40;54.30;;;25.03;37.22;101751.38;5094703;28;20058;-34
2021/08/23 02:39:00;;;;;;;0.80;0.80;;;21.40;54.30;;;25.06;37.27;101762.72;5094525;28;20044;-34
2021/08/23 02:41:26;;;;;;;0.80;0.80;;;21.40;54.40;;;25.04;37.33;101767.34;5094455;28;20047;-34
2021/08/23 02:43:51;;;;;;;0.80;0.80;;;21.40;54.30;;;25.05;37.31;101768.19;5094461;28;20093;-34
2021/08/23 02:46:17;;;;;;;0.70;0.70;;;21.30;54.30;;;25.07;37.30;101768.94;5094144;28;20127;-34
2021/08/23 02:48:45;;;;;;;0.60;0.60;;;21.40;54.40;;;25.06;37.16;101765.41;5094606;28;20052;-34
2021/08/23 02:51:12;;;;;;;0.80;0.80;;;21.30;54.30;;;25.04;37.39;101770.00;5094194;28;20071;-34
2021/08/23 02:53:38;;;;;;;1.00;0.98;;;21.30;54.30;;;25.03;37.43;101775.47;5094114;28;20048;-34
2021/08/23 02:56:04;;;;;;;1.02;0.70;;;21.30;54.30;;;25.03;37.44;101772.78;5094186;28;20044;-34
2021/08/23 02:58:30;;;;;;;0.80;0.80;;;21.30;54.30;;;25.03;37.36;101772.78;5094152;28;20048;-34
2021/08/23 03:00:56;;;;;;;0.77;0.77;;;21.30;54.30;;;25.04;37.27;101772.69;5094110;28;20059;-36
2021/08/23 03:03:22;;;;;;;0.80;0.80;;;21.30;54.30;;;25.02;37.26;101779.94;5093850;28;20504;-34
2021/08/23 03:05:48;;;;;;;0.75;0.75;;;21.30;54.40;;;25.04;37.22;101782.50;5094078;28;20040;-34
2021/08/23 03:08:14;;;;;;;0.70;0.70;;;21.30;54.40;;;25.03;37.11;101781.66;5094019;28;20047;-34
2021/08/23 03:10:39;;;;;;;0.70;0.70;;;21.30;54.40;;;25.02;37.24;101774.56;5093102;28;20047;-34
2021/08/23 03:13:05;;;;;;;0.90;0.90;;;21.30;54.40;;;25.03;37.36;101783.50;5093898;28;20051;-34
2021/08/23 03:15:31;;;;;;;0.80;0.80;;;21.30;54.40;;;24.99;37.37;101784.63;5093833;28;20040;-34
2021/08/23 03:17:57;;;;;;;0.70;0.70;;;21.30;54.40;;;25.03;37.37;101794.19;5093851;28;20383;-34
2021/08/23 03:20:23;;;;;;;0.80;0.80;;;21.30;54.40;;;25.00;37.33;101789.88;5093690;28;20489;-34
2021/08/23 03:22:49;;;;;;;0.68;0.68;;;21.30;54.40;;;24.99;37.26;101787.31;5094015;28;20055;-35
2021/08/23 03:25:15;;;;;;;0.65;0.65;;;21.30;54.40;;;25.03;37.34;101794.19;5093244;28;20550;-35
2021/08/23 03:27:41;;;;;;;0.80;0.80;;;21.30;54.40;;;25.04;37.49;101793.22;5093244;28;20137;-34
2021/08/23 03:30:07;;;;;;;0.73;0.73;;;21.30;54.40;;;25.03;37.15;101794.19;5093405;28;20052;-34
2021/08/23 03:32:33;;;;;;;0.70;0.70;;;21.30;54.40;;;25.02;37.30;101795.13;5093503;28;20048;-34
2021/08/23 03:35:00;;;;;;;0.80;0.80;;;21.40;54.40;;;25.03;37.17;101796.88;5075802;28;20048;-34
2021/08/23 03:37:27;;;;;;;0.80;0.80;;;21.30;54.30;;;25.03;37.38;101797.72;5093413;28;20040;-34
2021/08/23 03:39:52;;;;;;;0.80;0.80;;;21.40;54.40;;;25.07;37.33;101803.72;5093556;28;20383;-34
2021/08/23 03:42:18;;;;;;;0.60;0.60;;;21.40;54.30;;;25.06;37.27;101804.66;5093760;28;20066;-34
2021/08/23 03:44:44;;;;;;;0.52;0.52;;;21.40;54.30;;;25.09;37.18;101799.13;5093595;28;20097;-34
2021/08/23 03:47:11;;;;;;;0.75;0.75;;;21.40;54.30;;;25.07;37.22;101801.03;5093369;28;20048;-35
2021/08/23 03:49:38;;;;;;;0.63;0.63;;;21.40;54.20;;;25.10;37.23;101814.22;5093298;28;20051;-34
2021/08/23 03:52:04;;;;;;;0.70;0.70;;;21.40;54.20;;;25.08;37.21;101803.63;5093169;28;20052;-34
2021/08/23 03:54:30;;;;;;;0.60;0.60;;;21.40;54.20;;;25.11;37.27;101811.47;5093039;28;20048;-34
2021/08/23 03:56:55;;;;;;;0.77;0.73;;;21.40;54.10;;;25.11;37.26;101807.94;5093351;28;20044;-35
2021/08/23 03:59:21;;;;;;;0.77;0.75;;;21.40;54.10;;;25.11;37.16;101816.81;5093095;28;20056;-34
2021/08/23 04:01:47;;;;;;;0.70;0.70;;;21.40;54.20;;;25.09;37.11;101818.75;5092922;28;20047;-34
2021/08/23 04:04:13;;;;;;;0.60;0.60;;;21.40;54.20;;;25.12;37.25;101826.53;5093486;28;20481;-34
2021/08/23 04:06:44;;;;;;;0.80;0.75;;;21.50;54.20;;;25.13;37.27;101827.41;5093036;28;20401;-34
2021/08/23 04:09:14;;;;;;;0.90;0.90;;;21.50;54.10;;;25.13;37.34;101838.97;5093069;28;20081;-35
2021/08/23 04:11:41;;;;;;;0.90;0.90;;;21.50;54.10;;;25.14;37.27;101831.78;5093000;28;20405;-34
2021/08/23 04:14:06;;;;;;;0.80;0.80;;;21.50;54.10;;;25.16;37.23;101843.28;5092960;28;20097;-34
2021/08/23 04:16:32;;;;;;;0.52;0.52;;;21.50;54.10;;;25.15;37.16;101842.41;5093202;28;20139;-34
2021/08/23 04:18:58;;;;;;;0.70;0.70;;;21.50;54.00;;;25.15;37.09;101834.38;5092900;28;20044;-34
2021/08/23 04:21:24;;;;;;;0.65;0.65;;;21.50;54.00;;;25.19;36.94;101843.06;5092853;28;20159;-34
2021/08/23 04:23:50;;;;;;;0.88;0.80;;;21.50;54.00;;;25.20;37.01;101842.13;5093224;28;20056;-35
2021/08/23 04:26:15;;;;;;;0.70;0.60;;;21.60;54.00;;;25.21;37.08;101846.53;5093134;28;20047;-34
2021/08/23 04:28:41;;;;;;;0.60;0.60;;;21.50;54.00;;;25.21;37.09;101848.31;5092971;28;20071;-35
2021/08/23 04:31:07;;;;;;;0.70;0.70;;;21.50;54.00;;;25.24;37.02;101850.81;5092895;28;20131;-34
2021/08/23 04:33:33;;;;;;;0.63;0.63;;;21.60;54.00;;;25.24;37.06;101851.69;5092797;28;20047;-34
2021/08/23 04:35:58;;;;;;;1.10;0.88;;;21.60;54.50;;;25.26;36.95;101857.81;5092559;28;20045;-34
2021/08/23 04:38:24;;;;;;;0.95;0.88;;;21.60;54.00;;;25.30;37.06;101858.47;5092158;28;20055;-35
2021/08/23 04:40:50;;;;;;;0.60;0.60;;;21.60;54.00;;;25.30;36.83;101853.97;5092647;28;20386;-34
2021/08/23 04:43:16;;;;;;;0.70;0.70;;;21.60;53.90;;;25.33;36.93;101864.47;5092597;28;20055;-35
2021/08/23 04:45:41;;;;;;;0.57;0.57;;;21.60;53.80;;;25.36;36.75;101858.09;5092565;28;20056;-34
2021/08/23 04:48:07;;;;;;;0.63;0.63;;;21.60;53.80;;;25.41;36.66;101863.13;5092458;28;20094;-34
2021/08/23 04:50:33;;;;;;;0.70;0.70;;;21.60;53.70;;;25.44;36.65;101868.28;5092350;28;20044;-34
2021/08/23 04:52:59;;;;;;;0.73;0.73;;;21.70;53.70;;;25.47;36.52;101868.94;5092727;28;20044;-34
2021/08/23 04:55:25;;;;;;;0.73;0.73;;;21.70;53.60;;;25.51;36.57;101881.19;5092899;28;20048;-34
2021/08/23 04:57:54;;;;;;;0.75;0.75;;;21.70;53.60;;;25.51;36.51;101877.66;5092276;28;20059;-34
2021/08/23 05:00:20;;;;;;;0.60;0.60;;;21.70;53.50;;;25.52;36.46;101872.16;5092442;28;20493;-34
2021/08/23 05:02:46;;;;;;;1.25;0.70;;;21.80;53.50;;;25.59;36.45;101887.84;5092362;28;20101;-34
2021/08/23 05:05:12;;;;;;;0.90;0.85;;;21.80;53.50;;;25.60;36.51;101889.56;5092214;28;20048;-34
2021/08/23 05:07:38;;;;;;;0.60;0.60;;;21.80;53.40;;;25.64;36.36;101894.63;5092363;28;20063;-34
2021/08/23 05:10:04;;;;;;;0.73;0.73;;;21.90;53.40;;;25.70;36.33;101898.72;5092453;28;20044;-34
2021/08/23 05:12:30;;;;;;;0.70;0.70;;;21.90;53.30;;;25.74;36.30;101894.84;5092216;28;20044;-34
2021/08/23 05:14:56;;;;;;;0.77;0.77;;;21.90;53.20;;;25.75;36.18;101899.25;5092231;28;20104;-34
2021/08/23 05:17:22;;;;;;;0.75;0.75;;;22.00;53.20;;;25.82;36.20;101913.13;5092069;28;20060;-34
2021/08/23 05:19:48;;;;;;;0.70;0.70;;;22.00;53.10;;;25.86;36.10;101910.13;5092052;28;20091;-34
2021/08/23 05:22:13;;;;;;;0.98;0.90;;;22.00;53.00;;;25.88;36.02;101910.88;5092153;28;20127;-34
2021/08/23 05:24:40;;;;;;;0.68;0.68;;;22.10;53.00;;;25.97;35.86;101919.31;5092157;28;20040;-35
2021/08/23 05:27:08;;;;;;;0.95;0.88;;;22.10;52.80;;;25.99;35.80;101918.22;5091949;28;20131;-34
2021/08/23 05:29:33;;;;;;;0.60;0.60;;;22.20;52.80;;;26.05;35.89;101925.88;5091816;28;20060;-34
2021/08/23 05:31:59;;;;;;;0.57;0.57;;;22.20;52.70;;;26.09;35.82;101918.47;5091615;28;20063;-35
2021/08/23 05:34:25;;;;;;;0.70;0.70;;;22.20;52.60;;;26.14;35.69;101916.34;5091785;28;20052;-35
2021/08/23 05:36:51;;;;;;;0.70;0.70;;;22.30;52.50;;;26.22;35.67;101921.19;5092025;28;20068;-34
2021/08/23 05:39:17;;;;;;;0.65;0.65;;;22.30;52.30;;;26.27;35.52;101928.94;5091449;28;20075;-34
2021/08/23 05:41:43;;;;;;;0.70;0.70;;;22.40;52.30;;;26.31;35.45;101922.38;5092284;28;20059;-34
2021/08/23 05:44:08;;;;;;;0.80;0.75;;;22.40;52.10;;;26.34;35.25;101925.72;5091821;28;20064;-34
2021/08/23 05:46:34;;;;;;;0.70;0.70;;;22.50;52.10;;;26.40;35.29;101930.66;5091785;28;20040;-34
2021/08/23 05:49:00;;;;;;;0.70;0.70;;;22.50;52.00;;;26.46;35.22;101925.84;5092032;28;20052;-34
2021/08/23 05:51:26;;;;;;;0.50;0.50;;;22.60;51.90;;;26.48;34.96;101927.47;5095145;28;20068;-34
2021/08/23 05:53:51;;;;;;;0.90;0.90;;;22.60;51.80;;;26.53;35.02;101930.69;5095170;28;20075;-33
2021/08/23 05:56:17;;;;;;;0.60;0.60;;;22.70;51.70;;;26.58;34.87;101933.03;5092033;28;20071;-34
2021/08/23 05:58:43;;;;;;;0.70;0.70;;;22.70;51.60;;;26.67;34.83;101942.31;5094708;28;20400;-34
2021/08/23 06:01:08;;;;;;;0.73;0.73;;;22.80;51.60;;;26.71;34.88;101938.44;5095477;28;20048;-34
2021/08/23 06:03:34;;;;;;;0.60;0.60;;;22.80;51.50;;;26.75;34.77;101940.81;5093739;28;20052;-34
2021/08/23 06:06:04;;;;;;;0.60;0.60;;;22.80;51.40;;;26.79;34.74;101936.09;5094986;28;20051;-35
2021/08/23 06:08:32;;;;;;;0.50;0.50;;;22.90;51.30;;;26.84;34.45;101925.88;5093628;28;20048;-35
2021/08/23 06:10:59;;;;;;;0.77;0.77;;;22.90;51.20;;;26.88;34.36;101926.53;5095013;28;20052;-35
2021/08/23 06:13:25;;;;;;;0.70;0.70;;;22.90;51.10;;;26.94;34.53;101928.78;5094793;28;20502;-35
2021/08/23 06:15:54;;;;;;;0.80;0.80;;;23.00;51.10;;;26.98;34.53;101941.00;5095170;28;20119;-35
2021/08/23 06:18:21;;;;;;;0.60;0.60;;;23.00;51.00;;;27.01;34.19;101934.56;5094797;28;20048;-35
2021/08/23 06:20:46;;;;;;;0.80;0.80;;;23.00;51.00;;;27.06;34.25;101946.69;5094660;28;20036;-36
2021/08/23 06:23:12;;;;;;;0.77;0.52;;;23.00;50.90;;;27.08;34.22;101942.09;5095184;28;20104;-35
2021/08/23 06:25:38;;;;;;;0.88;0.82;;;23.10;50.90;;;27.15;34.28;101947.88;5094592;28;20048;-35
2021/08/23 06:28:04;;;;;;;0.93;0.82;;;23.10;50.80;;;27.16;34.11;101944.22;5094795;28;20477;-35
2021/08/23 06:30:30;;;;;;;1.30;0.82;;;23.20;50.80;;;27.21;33.84;101952.78;5094583;28;20490;-35
2021/08/23 06:32:55;;;;;;;0.60;0.60;;;23.20;50.80;;;27.25;33.80;101957.00;5094845;28;20385;-35
2021/08/23 06:35:21;;;;;;;0.70;0.70;;;23.20;50.70;;;27.30;33.96;101954.88;5094434;28;20044;-35
2021/08/23 06:37:47;;;;;;;0.70;0.70;;;23.20;50.70;;;27.33;34.01;101957.34;5094221;28;20060;-35
2021/08/23 06:40:14;;;;;;;1.33;0.70;;;23.30;50.60;;;27.39;34.05;101964.06;5094780;28;20048;-35
2021/08/23 06:42:40;;;;;;;0.88;0.73;;;23.30;50.60;;;27.41;33.83;101969.34;5094975;28;20052;-35
2021/08/23 06:45:07;;;;;;;1.02;0.75;;;23.30;50.40;;;27.43;33.81;101959.34;5094216;28;20055;-35
2021/08/23 06:47:33;;;;;;;0.65;0.65;;;23.40;50.50;;;27.49;33.73;101967.81;5094000;28;20048;-35
2021/08/23 06:49:59;;;;;;;0.82;0.73;;;23.40;50.40;;;27.54;33.63;101972.84;5094614;28;20130;-35
2021/08/23 06:52:24;;;;;;;0.70;0.70;;;23.40;50.30;;;27.53;33.61;101973.81;5094515;28;20458;-35
2021/08/23 06:54:50;;;;;;;0.70;0.70;;;23.50;50.30;;;27.60;33.60;101990.34;5094765;28;20431;-35
2021/08/23 06:57:16;;;;;;;1.13;0.80;;;23.50;50.20;;;27.63;33.44;101980.25;5093952;28;20396;-34
2021/08/23 06:59:43;;;;;;;0.75;0.75;;;23.50;50.20;;;27.67;33.54;101984.41;5093801;28;20044;-34
2021/08/23 07:02:10;;;;;;;0.80;0.80;;;23.50;50.20;;;27.70;33.40;101984.19;5094450;28;20052;-34
2021/08/23 07:04:38;;;;;;;1.45;0.80;;;23.60;50.20;;;27.69;33.41;101976.25;5093974;28;20060;-34
2021/08/23 07:07:04;;;;;;;0.77;0.73;;;23.60;50.20;;;27.73;33.15;101983.97;5094023;28;20051;-34
2021/08/23 07:09:30;;;;;;;1.05;0.90;;;23.60;50.10;;;27.80;33.09;101991.56;5094117;28;20460;-34
2021/08/23 07:11:56;;;;;;;0.82;0.70;;;23.70;50.20;;;27.82;33.05;101987.81;5093606;28;20481;-34
2021/08/23 07:14:22;;;;;;;0.73;0.73;;;23.70;50.10;;;27.83;33.31;101989.53;5093601;28;20044;-35
2021/08/23 07:16:50;;;;;;;0.68;0.68;;;23.70;50.10;;;27.87;33.18;101998.22;5093486;28;20052;-34
2021/08/23 07:19:16;;;;;;;1.50;1.00;;;23.70;50.10;;;27.86;33.31;101994.66;5093473;28;20501;-35
2021/08/23 07:21:42;;;;;;;0.73;0.73;;;23.70;50.00;;;27.91;33.33;101997.88;5093517;28;20059;-34
2021/08/23 07:24:09;;;;;;;0.77;0.75;;;23.70;49.90;;;27.88;32.94;101990.06;5093548;28;20146;-35
2021/08/23 07:26:36;;;;;;;1.08;0.80;;;23.70;50.00;;;27.89;32.93;102013.25;5093512;28;20051;-35
2021/08/23 07:29:02;;;;;;;1.33;0.80;;;23.70;50.10;;;27.88;33.19;101999.94;5093371;28;20059;-35
2021/08/23 07:31:28;;;;;;;1.15;1.02;;;23.70;50.20;;;27.87;33.37;102000.91;5075299;28;20052;-34
2021/08/23 07:33:54;;;;;;;0.90;0.90;;;23.70;50.20;;;27.91;33.00;102003.25;5093877;28;20052;-35
2021/08/23 07:36:20;;;;;;;1.08;0.77;;;23.70;50.00;;;27.94;33.21;102004.03;5093405;28;20135;-36
2021/08/23 07:38:46;;;;;;;0.80;0.80;;;23.80;49.90;;;28.00;33.30;102006.25;5093410;28;20052;-35
2021/08/23 07:41:12;;;;;;;0.80;0.80;;;23.80;49.90;;;28.05;33.10;102013.03;5093497;28;20409;-35
2021/08/23 07:43:39;;;;;;;1.02;0.82;;;23.80;49.70;;;28.05;32.98;102013.03;5093597;28;20036;-35
2021/08/23 07:46:06;;;;;;;0.80;0.75;;;23.80;49.70;;;28.05;33.04;102017.53;5093584;28;20110;-34
2021/08/23 07:48:32;;;;;;;0.70;0.70;;;23.80;49.70;;;28.09;32.85;102019.03;5093098;28;20040;-34
2021/08/23 07:50:58;;;;;;;0.70;0.70;;;23.90;49.70;;;28.04;32.72;102021.19;5093112;28;20086;-34
2021/08/23 07:53:23;;;;;;;0.80;0.80;;;23.80;49.80;;;28.07;32.87;102018.28;5093211;28;20055;-34
2021/08/23 07:55:49;;;;;;;1.05;0.75;;;23.80;49.80;;;28.09;32.94;102029.78;5093261;28;20398;-35
2021/08/23 07:58:15;;;;;;;1.13;0.80;;;23.80;49.70;;;28.08;32.82;102028.06;5093384;28;20410;-34
2021/08/23 08:00:40;;;;;;;2.00;0.95;;;23.90;49.90;;;28.11;32.78;102024.28;5093515;28;20066;-35
2021/08/23 08:03:06;;;;;;;0.93;0.70;;;23.80;49.70;;;28.14;32.79;102032.13;5092993;28;20048;-35
2021/08/23 08:05:37;;;;;;;1.33;0.90;;;23.90;49.70;;;28.17;32.91;102029.22;5093125;28;20048;-34
2021/08/23 08:08:06;;;;;;;0.90;0.80;;;23.90;49.60;;;28.20;32.41;102039.72;5093106;28;20550;-34
2021/08/23 08:10:33;;;;;;;0.77;0.65;;;23.90;49.50;;;28.21;32.55;102036.06;5093277;28;20481;-34
2021/08/23 08:13:00;;;;;;;1.00;0.70;;;23.90;49.40;;;28.21;32.73;102042.31;5092296;28;20146;-34
2021/08/23 08:15:26;;;;;;;0.95;0.80;;;23.90;49.40;;;28.25;32.77;102051.00;5093095;28;20083;-34
2021/08/23 08:17:52;;;;;;;0.68;0.63;;;24.00;49.50;;;28.24;32.54;102050.16;5093135;28;20485;-34
2021/08/23 08:20:17;;;;;;;1.15;0.80;;;24.00;49.50;;;28.21;32.52;102061.13;5092785;28;20074;-34
2021/08/23 08:22:44;;;;;;;1.08;0.98;;;23.90;49.50;;;28.18;32.53;102058.66;5092850;28;20393;-34
2021/08/23 08:25:11;;;;;;;1.70;0.88;;;23.80;49.60;;;28.12;32.51;102050.19;5092740;28;20086;-34
2021/08/23 08:27:37;;;;;;;0.80;0.70;;;23.80;49.70;;;28.13;32.67;102058.16;5092723;28;20138;-34
2021/08/23 08:30:06;;;;;;;0.88;0.80;;;23.80;49.70;;;28.15;32.66;102058.03;5092446;28;20048;-34
2021/08/23 08:32:32;;;;;;;0.80;0.80;;;23.90;49.70;;;28.14;32.56;102062.56;5092575;28;20451;-34
2021/08/23 08:34:58;;;;;;;0.60;0.60;;;23.90;49.60;;;28.16;32.61;102065.13;5092565;28;20059;-34
2021/08/23 08:37:23;;;;;;;0.90;0.70;;;23.90;49.60;;;28.16;32.76;102079.44;5092549;28;20056;-34
2021/08/23 08:39:49;;;;;;;0.75;0.75;;;23.80;49.60;;;28.14;32.75;102065.25;5092398;28;20040;-35
2021/08/23 08:42:17;;;;;;;0.80;0.80;;;23.80;49.60;;;28.11;32.46;102070.00;5092947;28;20056;-34
2021/08/23 08:44:47;;;;;;;1.42;0.70;;;23.80;49.70;;;28.01;32.74;102064.44;5092528;28;20135;-35
2021/08/23 08:47:19;;;;;;;0.70;0.70;;;23.70;49.70;;;28.01;32.65;102075.19;5092473;28;20040;-34
2021/08/23 08:49:46;;;;;;;;;;;23.70;49.70;;;28.06;32.62;102070.34;5092971;28;20052;-35
2021/08/23 08:52:14;;;;;;;0.73;0.73;;;23.70;49.80;;;27.94;32.89;102079.31;5092240;28;19916;-34
2021/08/23 08:54:43;;;;;;;0.80;0.80;;;23.70;49.90;;;27.89;32.87;102084.97;5092139;28;20059;-34
2021/08/23 08:57:09;;;;;;;1.10;0.85;;;23.70;50.00;;;27.83;32.96;102097.03;5092310;28;20047;-35
2021/08/23 08:59:35;;;;;;;0.73;0.65;;;23.60;50.00;;;27.82;33.05;102095.31;5092331;28;20052;-34
2021/08/23 09:02:01;;;;;;;1.15;0.98;;;23.60;50.00;;;27.76;33.21;102093.06;5092258;28;20124;-34
2021/08/23 09:04:37;;;;;;;1.00;0.90;;;23.60;50.00;;;27.71;33.32;102106.81;5092042;28;20119;-35
2021/08/23 09:07:06;;;;;;;1.02;0.82;;;23.60;50.10;;;27.67;33.10;102102.66;5091968;28;20508;-35
2021/08/23 09:09:33;;;;;;;0.70;0.70;;;23.60;50.10;;;27.66;33.14;102110.81;5090063;28;20132;-36
2021/08/23 09:12:04;;;;;;;0.70;0.70;;;23.60;50.10;;;27.62;33.33;102107.50;5092099;28;20101;-34
2021/08/23 09:14:32;;;;;;;1.73;0.77;;;23.60;50.10;;;27.58;33.23;102103.28;5092422;28;20382;-34
2021/08/23 09:17:10;;;;;;;1.30;0.93;;;23.50;50.10;;;27.52;33.53;102101.06;5091801;28;20471;-34
2021/08/23 09:19:40;;;;;;;1.10;0.90;;;23.50;50.10;;;27.50;33.52;102101.16;5091749;28;20044;-34
2021/08/23 09:22:19;;;;;;;1.02;0.90;;;23.50;50.20;;;27.45;33.36;102099.75;5092359;28;20514;-35
2021/08/23 09:24:45;;;;;;;1.40;0.93;;;23.50;50.20;;;27.49;33.47;102109.31;5092451;28;20056;-35
2021/08/23 09:27:14;;;;;;;0.82;0.77;;;23.50;50.20;;;27.44;33.46;102101.59;5095817;28;20052;-35
2021/08/23 09:30:00;;;;;;;0.85;0.80;;;23.50;50.20;;;27.44;33.43;102111.47;5095504;28;20105;-35
2021/08/23 09:32:47;;;;;;;0.60;0.60;;;23.50;50.20;;;27.42;33.56;102102.69;5095834;28;20047;-34
2021/08/23 09:35:25;;;;;;;1.00;0.90;;;23.50;50.20;;;27.42;33.54;102110.72;5095703;28;20052;-35
2021/08/23 09:37:50;;;;;;;0.98;0.88;;;23.50;50.10;;;27.44;33.39;102104.28;5095460;28;20121;-34
2021/08/23 09:40:18;;;;;;;1.35;0.82;;;23.50;50.10;;;27.38;33.80;102106.53;5077217;28;20396;-35
2021/08/23 09:42:44;;;;;;;1.08;0.98;;;23.40;50.10;;;27.41;33.88;102109.84;5095669;28;20131;-34
2021/08/23 09:45:18;;;;;;;0.70;0.70;;;23.50;50.10;;;27.36;33.62;102103.94;5095782;28;20043;-35
2021/08/23 09:47:44;;;;;;;1.33;0.80;;;23.50;50.00;;;27.40;33.68;102108.16;5092449;28;20394;-35
2021/08/23 09:50:15;;;;;;;1.85;0.70;;;23.50;50.10;;;27.40;33.85;102118.00;5095506;28;20142;-34
2021/08/23 09:52:41;;;;;;;;;;;23.50;50.00;;;27.49;33.44;102107.50;5095866;28;20129;-35
2021/08/23 09:55:09;;;;;;;0.80;0.80;;;23.50;50.00;;;27.44;33.46;102106.09;5095524;28;20002;-34
2021/08/23 09:57:41;;;;;;;1.02;0.90;;;23.50;50.00;;;27.43;33.77;102113.31;5094954;28;20100;-36
2021/08/23 10:00:12;;;;;;;1.48;1.02;;;23.60;50.00;;;27.43;33.47;102120.50;5094969;28;20048;-35
2021/08/23 10:02:47;;;;;;;1.38;1.10;;;23.50;49.90;;;27.41;33.65;102122.44;5095002;28;20063;-34
2021/08/23 10:05:16;;;;;;;0.80;0.80;;;23.50;49.90;;;27.40;33.44;102120.69;5095282;28;20068;-35
2021/08/23 10:07:43;;;;;;;1.05;0.85;;;23.60;49.90;;;27.42;33.53;102125.00;5094875;28;20102;-35
2021/08/23 10:10:10;;;;;;;0.98;0.80;;;23.60;49.80;;;27.42;33.48;102125.00;5095035;28;20521;-34
2021/08/23 10:12:36;;;;;;;0.98;0.80;;;23.60;49.80;;;27.42;33.63;102125.00;5094861;28;20048;-34